sensor_id;sensor_type;location;lat;lon;timestamp;pressure;altitude;pressure_sealevel;temperature;humidity
68628;BME280;55611;48.602;9.490;2022-12-07T00:02:13;96900;;;6.8;64
68628;BME280;55611;48.602;9.490;2022-12-07T00:04:43;96900;;;6.8;64
68628;BME280;55611;48.602;9.490;2022-12-07T00:07:13;96900;;;6.8;64
68628;BME280;55611;48.602;9.490;2022-12-07T00:09:44;96900;;;6.8;64
68628;BME280;55611;48.602;9.490;2022-12-07T00:12:14;96900;;;6.8;64
68628;BME280;55611;48.602;9.490;2022-12-07T00:14:46;96900;;;6.8;64
68628;BME280;55611;48.602;9.490;2022-12-07T00:17:16;96890;;;6.7;64
68628;BME280;55611;48.602;9.490;2022-12-07T00:19:46;96900;;;6.7;64
68628;BME280;55611;48.602;9.490;2022-12-07T00:22:17;96900;;;6.7;64
68628;BME280;55611;48.602;9.490;2022-12-07T00:24:47;96890;;;6.7;64
68628;BME280;55611;48.602;9.490;2022-12-07T00:29:48;96900;;;6.7;64
68628;BME280;55611;48.602;9.490;2022-12-07T00:32:19;96900;;;6.6;64
68628;BME280;55611;48.602;9.490;2022-12-07T00:34:49;96900;;;6.6;64
68628;BME280;55611;48.602;9.490;2022-12-07T00:37:20;96900;;;6.6;64
68628;BME280;55611;48.602;9.490;2022-12-07T00:39:50;96900;;;6.6;64
68628;BME280;55611;48.602;9.490;2022-12-07T00:42:21;96900;;;6.7;64
68628;BME280;55611;48.602;9.490;2022-12-07T00:44:51;96900;;;6.7;64
68628;BME280;55611;48.602;9.490;2022-12-07T00:47:22;96890;;;6.7;64
68628;BME280;55611;48.602;9.490;2022-12-07T00:49:52;96900;;;6.6;64
68628;BME280;55611;48.602;9.490;2022-12-07T00:52:23;96890;;;6.6;64
68628;BME280;55611;48.602;9.490;2022-12-07T00:54:53;96890;;;6.6;64
68628;BME280;55611;48.602;9.490;2022-12-07T00:57:24;96890;;;6.6;64
68628;BME280;55611;48.602;9.490;2022-12-07T00:59:54;96890;;;6.5;64
68628;BME280;55611;48.602;9.490;2022-12-07T01:04:55;96890;;;6.5;64
68628;BME280;55611;48.602;9.490;2022-12-07T01:07:26;96880;;;6.5;64
68628;BME280;55611;48.602;9.490;2022-12-07T01:09:56;96880;;;6.5;64
68628;BME280;55611;48.602;9.490;2022-12-07T01:14:57;96890;;;6.6;64
68628;BME280;55611;48.602;9.490;2022-12-07T01:17:28;96890;;;6.5;64
68628;BME280;55611;48.602;9.490;2022-12-07T01:19:58;96890;;;6.4;64
68628;BME280;55611;48.602;9.490;2022-12-07T01:22:29;96880;;;6.4;64
68628;BME280;55611;48.602;9.490;2022-12-07T01:24:59;96890;;;6.4;64
68628;BME280;55611;48.602;9.490;2022-12-07T01:27:30;96890;;;6.4;64
68628;BME280;55611;48.602;9.490;2022-12-07T01:30:02;96890;;;6.3;64
68628;BME280;55611;48.602;9.490;2022-12-07T01:32:31;96890;;;6.3;64
68628;BME280;55611;48.602;9.490;2022-12-07T01:35:02;96900;;;6.4;64
68628;BME280;55611;48.602;9.490;2022-12-07T01:37:34;96900;;;6.4;64
68628;BME280;55611;48.602;9.490;2022-12-07T01:42:33;96900;;;6.3;64
68628;BME280;55611;48.602;9.490;2022-12-07T01:45:20;96910;;;6.4;64
68628;BME280;55611;48.602;9.490;2022-12-07T01:47:34;96900;;;6.4;64
68628;BME280;55611;48.602;9.490;2022-12-07T01:50:05;96900;;;6.4;64
68628;BME280;55611;48.602;9.490;2022-12-07T01:52:35;96900;;;6.4;64
68628;BME280;55611;48.602;9.490;2022-12-07T01:55:07;96900;;;6.4;64
68628;BME280;55611;48.602;9.490;2022-12-07T01:57:37;96910;;;6.4;64
68628;BME280;55611;48.602;9.490;2022-12-07T02:00:07;96900;;;6.4;64
68628;BME280;55611;48.602;9.490;2022-12-07T02:02:38;96900;;;6.4;64
68628;BME280;55611;48.602;9.490;2022-12-07T02:05:08;96900;;;6.4;64
68628;BME280;55611;48.602;9.490;2022-12-07T02:07:38;96910;;;6.3;64
68628;BME280;55611;48.602;9.490;2022-12-07T02:10:17;96910;;;6.3;64
68628;BME280;55611;48.602;9.490;2022-12-07T02:12:39;96900;;;6.3;64
68628;BME280;55611;48.602;9.490;2022-12-07T02:15:10;96900;;;6.3;64
68628;BME280;55611;48.602;9.490;2022-12-07T02:17:43;96910;;;6.3;64
68628;BME280;55611;48.602;9.490;2022-12-07T02:20:17;96910;;;6.3;64
68628;BME280;55611;48.602;9.490;2022-12-07T02:22:49;96920;;;6.3;64
68628;BME280;55611;48.602;9.490;2022-12-07T02:25:14;96920;;;6.2;64.5
68628;BME280;55611;48.602;9.490;2022-12-07T02:27:46;96910;;;6.2;64.5
68628;BME280;55611;48.602;9.490;2022-12-07T02:30:14;96910;;;6.2;64.5
68628;BME280;55611;48.602;9.490;2022-12-07T02:32:48;96910;;;6.2;64.5
68628;BME280;55611;48.602;9.490;2022-12-07T02:35:17;96920;;;6.1;64.5
68628;BME280;55611;48.602;9.490;2022-12-07T02:37:50;96910;;;6.1;64.5
68628;BME280;55611;48.602;9.490;2022-12-07T02:40:18;96910;;;6.1;64.5
68628;BME280;55611;48.602;9.490;2022-12-07T02:45:17;96910;;;6;64.5
68628;BME280;55611;48.602;9.490;2022-12-07T02:47:47;96910;;;6;64.5
68628;BME280;55611;48.602;9.490;2022-12-07T02:50:18;96910;;;6;64.5
68628;BME280;55611;48.602;9.490;2022-12-07T02:52:47;96910;;;6;64
68628;BME280;55611;48.602;9.490;2022-12-07T02:55:19;96910;;;6;64
68628;BME280;55611;48.602;9.490;2022-12-07T02:57:54;96910;;;6.1;64
68628;BME280;55611;48.602;9.490;2022-12-07T03:00:19;96900;;;6.1;64
68628;BME280;55611;48.602;9.490;2022-12-07T03:02:54;96900;;;6.2;64
68628;BME280;55611;48.602;9.490;2022-12-07T03:05:27;96900;;;6.2;64
68628;BME280;55611;48.602;9.490;2022-12-07T03:07:57;96900;;;6.2;63.5
68628;BME280;55611;48.602;9.490;2022-12-07T03:10:24;96890;;;6.3;63.5
68628;BME280;55611;48.602;9.490;2022-12-07T03:12:59;96890;;;6.3;63.5
68628;BME280;55611;48.602;9.490;2022-12-07T03:15:26;96890;;;6.2;63.5
68628;BME280;55611;48.602;9.490;2022-12-07T03:17:53;96880;;;6.2;63.5
68628;BME280;55611;48.602;9.490;2022-12-07T03:20:23;96880;;;6.2;63.5
68628;BME280;55611;48.602;9.490;2022-12-07T03:22:54;96880;;;6.3;63.5
68628;BME280;55611;48.602;9.490;2022-12-07T03:25:24;96880;;;6.3;63.5
68628;BME280;55611;48.602;9.490;2022-12-07T03:27:56;96880;;;6.3;63.5
68628;BME280;55611;48.602;9.490;2022-12-07T03:30:34;96890;;;6.3;63.5
68628;BME280;55611;48.602;9.490;2022-12-07T03:33:04;96890;;;6.3;63.5
68628;BME280;55611;48.602;9.490;2022-12-07T03:35:27;96890;;;6.3;63.5
68628;BME280;55611;48.602;9.490;2022-12-07T03:37:59;96890;;;6.2;63.5
68628;BME280;55611;48.602;9.490;2022-12-07T03:40:33;96890;;;6.2;63.5
68628;BME280;55611;48.602;9.490;2022-12-07T03:42:58;96880;;;6.2;63.5
68628;BME280;55611;48.602;9.490;2022-12-07T03:45:35;96880;;;6.3;63.5
68628;BME280;55611;48.602;9.490;2022-12-07T03:48:02;96870;;;6.3;63.5
68628;BME280;55611;48.602;9.490;2022-12-07T03:50:48;96870;;;6.3;63.5
68628;BME280;55611;48.602;9.490;2022-12-07T03:53:03;96880;;;6.3;63.5
68628;BME280;55611;48.602;9.490;2022-12-07T03:55:31;96880;;;6.3;63.5
68628;BME280;55611;48.602;9.490;2022-12-07T03:58:03;96880;;;6.3;63.5
68628;BME280;55611;48.602;9.490;2022-12-07T04:00:31;96880;;;6.4;63.5
68628;BME280;55611;48.602;9.490;2022-12-07T04:03:02;96880;;;6.3;63.5
68628;BME280;55611;48.602;9.490;2022-12-07T04:05:33;96890;;;6.3;63.5
68628;BME280;55611;48.602;9.490;2022-12-07T04:08:03;96880;;;6.3;63.5
68628;BME280;55611;48.602;9.490;2022-12-07T04:10:33;96880;;;6.3;63.5
68628;BME280;55611;48.602;9.490;2022-12-07T04:13:04;96880;;;6.2;63.5
68628;BME280;55611;48.602;9.490;2022-12-07T04:15:34;96880;;;6.2;64
68628;BME280;55611;48.602;9.490;2022-12-07T04:18:05;96870;;;6.2;64
68628;BME280;55611;48.602;9.490;2022-12-07T04:20:35;96870;;;6.2;64
68628;BME280;55611;48.602;9.490;2022-12-07T04:23:06;96860;;;6.2;64
68628;BME280;55611;48.602;9.490;2022-12-07T04:25:36;96860;;;6.3;64
68628;BME280;55611;48.602;9.490;2022-12-07T04:28:07;96860;;;6.3;63.5
68628;BME280;55611;48.602;9.490;2022-12-07T04:33:08;96860;;;6.3;63.5
68628;BME280;55611;48.602;9.490;2022-12-07T04:35:39;96870;;;6.2;63.5
68628;BME280;55611;48.602;9.490;2022-12-07T04:38:09;96860;;;6.2;63.5
68628;BME280;55611;48.602;9.490;2022-12-07T04:40:40;96870;;;6.2;64
68628;BME280;55611;48.602;9.490;2022-12-07T04:43:10;96860;;;6.1;64
68628;BME280;55611;48.602;9.490;2022-12-07T04:45:45;96860;;;6.1;64
68628;BME280;55611;48.602;9.490;2022-12-07T04:48:11;96860;;;6.1;63.5
68628;BME280;55611;48.602;9.490;2022-12-07T04:50:42;96860;;;6.1;63.5
68628;BME280;55611;48.602;9.490;2022-12-07T04:53:12;96860;;;6;63.5
68628;BME280;55611;48.602;9.490;2022-12-07T04:55:43;96870;;;6;63.5
68628;BME280;55611;48.602;9.490;2022-12-07T04:58:13;96860;;;5.9;63.5
68628;BME280;55611;48.602;9.490;2022-12-07T05:00:44;96860;;;5.9;63.5
68628;BME280;55611;48.602;9.490;2022-12-07T05:03:14;96860;;;5.8;63.5
68628;BME280;55611;48.602;9.490;2022-12-07T05:05:45;96860;;;5.7;63.5
68628;BME280;55611;48.602;9.490;2022-12-07T05:08:15;96860;;;5.6;63
68628;BME280;55611;48.602;9.490;2022-12-07T05:10:46;96860;;;5.5;63
68628;BME280;55611;48.602;9.490;2022-12-07T05:13:16;96860;;;5.4;63
68628;BME280;55611;48.602;9.490;2022-12-07T05:15:47;96860;;;5.3;63
68628;BME280;55611;48.602;9.490;2022-12-07T05:18:17;96860;;;5.1;63
68628;BME280;55611;48.602;9.490;2022-12-07T05:20:48;96870;;;5.1;63
68628;BME280;55611;48.602;9.490;2022-12-07T05:23:18;96870;;;5;63
68628;BME280;55611;48.602;9.490;2022-12-07T05:25:49;96870;;;5;63
68628;BME280;55611;48.602;9.490;2022-12-07T05:28:19;96860;;;4.9;63
68628;BME280;55611;48.602;9.490;2022-12-07T05:30:50;96860;;;4.8;62.5
68628;BME280;55611;48.602;9.490;2022-12-07T05:33:20;96860;;;4.7;62.5
68628;BME280;55611;48.602;9.490;2022-12-07T05:35:51;96860;;;4.6;62.5
68628;BME280;55611;48.602;9.490;2022-12-07T05:38:21;96860;;;4.6;62.5
68628;BME280;55611;48.602;9.490;2022-12-07T05:40:52;96850;;;4.5;62.5
68628;BME280;55611;48.602;9.490;2022-12-07T05:43:22;96850;;;4.5;62.5
68628;BME280;55611;48.602;9.490;2022-12-07T05:45:53;96850;;;4.4;63
68628;BME280;55611;48.602;9.490;2022-12-07T05:48:24;96860;;;4.4;63
68628;BME280;55611;48.602;9.490;2022-12-07T05:50:54;96860;;;4.5;63
68628;BME280;55611;48.602;9.490;2022-12-07T05:53:25;96850;;;4.6;63.5
68628;BME280;55611;48.602;9.490;2022-12-07T05:55:55;96850;;;4.7;63.5
68628;BME280;55611;48.602;9.490;2022-12-07T05:58:26;96840;;;4.8;63.5
68628;BME280;55611;48.602;9.490;2022-12-07T06:00:56;96840;;;4.9;63.5
68628;BME280;55611;48.602;9.490;2022-12-07T06:03:27;96830;;;4.9;63.5
68628;BME280;55611;48.602;9.490;2022-12-07T06:05:57;96830;;;4.9;63.5
68628;BME280;55611;48.602;9.490;2022-12-07T06:08:28;96830;;;4.9;64
68628;BME280;55611;48.602;9.490;2022-12-07T06:10:58;96830;;;4.9;63.5
68628;BME280;55611;48.602;9.490;2022-12-07T06:13:29;96830;;;4.9;64
68628;BME280;55611;48.602;9.490;2022-12-07T06:15:59;96830;;;5;63.5
68628;BME280;55611;48.602;9.490;2022-12-07T06:18:30;96830;;;5;63.5
68628;BME280;55611;48.602;9.490;2022-12-07T06:21:00;96830;;;5;63.5
68628;BME280;55611;48.602;9.490;2022-12-07T06:23:31;96830;;;5;63.5
68628;BME280;55611;48.602;9.490;2022-12-07T06:26:01;96830;;;4.9;64
68628;BME280;55611;48.602;9.490;2022-12-07T06:28:32;96840;;;5;64
68628;BME280;55611;48.602;9.490;2022-12-07T06:31:02;96840;;;5.1;63.5
68628;BME280;55611;48.602;9.490;2022-12-07T06:33:33;96850;;;5.2;63.5
68628;BME280;55611;48.602;9.490;2022-12-07T06:36:03;96850;;;5.2;63.5
68628;BME280;55611;48.602;9.490;2022-12-07T06:38:34;96850;;;5.2;63.5
68628;BME280;55611;48.602;9.490;2022-12-07T06:41:04;96860;;;5.2;63.5
68628;BME280;55611;48.602;9.490;2022-12-07T06:43:35;96860;;;5.2;63.5
68628;BME280;55611;48.602;9.490;2022-12-07T06:46:05;96860;;;5.2;63.5
68628;BME280;55611;48.602;9.490;2022-12-07T06:48:36;96870;;;5.1;63.5
68628;BME280;55611;48.602;9.490;2022-12-07T06:51:06;96860;;;5.1;63.5
68628;BME280;55611;48.602;9.490;2022-12-07T06:53:37;96860;;;5;63.5
68628;BME280;55611;48.602;9.490;2022-12-07T06:56:07;96870;;;5;63.5
68628;BME280;55611;48.602;9.490;2022-12-07T06:58:38;96880;;;4.8;63.5
68628;BME280;55611;48.602;9.490;2022-12-07T07:01:09;96880;;;4.5;63.5
68628;BME280;55611;48.602;9.490;2022-12-07T07:03:39;96880;;;4.3;63.5
68628;BME280;55611;48.602;9.490;2022-12-07T07:06:10;96880;;;4.3;63.5
68628;BME280;55611;48.602;9.490;2022-12-07T07:08:40;96880;;;4.4;63.5
68628;BME280;55611;48.602;9.490;2022-12-07T07:11:11;96890;;;4.4;63.5
68628;BME280;55611;48.602;9.490;2022-12-07T07:13:41;96890;;;4.6;63.5
68628;BME280;55611;48.602;9.490;2022-12-07T07:16:12;96880;;;4.7;63.5
68628;BME280;55611;48.602;9.490;2022-12-07T07:18:42;96890;;;4.7;63.5
68628;BME280;55611;48.602;9.490;2022-12-07T07:21:13;96890;;;4.7;63.5
68628;BME280;55611;48.602;9.490;2022-12-07T07:23:43;96890;;;4.8;63.5
68628;BME280;55611;48.602;9.490;2022-12-07T07:26:14;96890;;;4.9;63.5
68628;BME280;55611;48.602;9.490;2022-12-07T07:28:44;96890;;;4.9;63.5
68628;BME280;55611;48.602;9.490;2022-12-07T07:31:15;96900;;;5;63.5
68628;BME280;55611;48.602;9.490;2022-12-07T07:33:46;96900;;;5.1;63.5
68628;BME280;55611;48.602;9.490;2022-12-07T07:36:16;96900;;;5.1;63.5
68628;BME280;55611;48.602;9.490;2022-12-07T07:38:46;96900;;;5.1;63.5
68628;BME280;55611;48.602;9.490;2022-12-07T07:41:17;96900;;;5;63.5
68628;BME280;55611;48.602;9.490;2022-12-07T07:43:47;96900;;;5.1;63.5
68628;BME280;55611;48.602;9.490;2022-12-07T07:46:18;96900;;;5.1;63.5
68628;BME280;55611;48.602;9.490;2022-12-07T07:48:48;96900;;;5.2;64
68628;BME280;55611;48.602;9.490;2022-12-07T07:51:19;96900;;;5.2;64
68628;BME280;55611;48.602;9.490;2022-12-07T07:53:49;96900;;;5.3;64
68628;BME280;55611;48.602;9.490;2022-12-07T07:56:20;96910;;;5.3;64
68628;BME280;55611;48.602;9.490;2022-12-07T07:58:52;96920;;;5.4;64
68628;BME280;55611;48.602;9.490;2022-12-07T08:01:21;96930;;;5.4;64
68628;BME280;55611;48.602;9.490;2022-12-07T08:03:51;96920;;;5.4;64
68628;BME280;55611;48.602;9.490;2022-12-07T08:06:22;96920;;;5.5;64
68628;BME280;55611;48.602;9.490;2022-12-07T08:08:52;96930;;;5.4;64
68628;BME280;55611;48.602;9.490;2022-12-07T08:11:23;96930;;;5.5;64
68628;BME280;55611;48.602;9.490;2022-12-07T08:13:53;96930;;;5.4;64
68628;BME280;55611;48.602;9.490;2022-12-07T08:16:24;96940;;;5.4;64
68628;BME280;55611;48.602;9.490;2022-12-07T08:18:54;96940;;;5.5;64
68628;BME280;55611;48.602;9.490;2022-12-07T08:21:25;96930;;;5.6;64
68628;BME280;55611;48.602;9.490;2022-12-07T08:23:56;96930;;;5.6;64
68628;BME280;55611;48.602;9.490;2022-12-07T08:26:26;96930;;;5.6;64
68628;BME280;55611;48.602;9.490;2022-12-07T08:28:56;96930;;;5.7;64
68628;BME280;55611;48.602;9.490;2022-12-07T08:31:27;96930;;;5.7;64
68628;BME280;55611;48.602;9.490;2022-12-07T08:33:58;96930;;;5.8;64
68628;BME280;55611;48.602;9.490;2022-12-07T08:36:28;96930;;;5.9;64
68628;BME280;55611;48.602;9.490;2022-12-07T08:38:59;96930;;;5.9;64
68628;BME280;55611;48.602;9.490;2022-12-07T08:41:29;96930;;;6;64
68628;BME280;55611;48.602;9.490;2022-12-07T08:44:00;96930;;;6;64
68628;BME280;55611;48.602;9.490;2022-12-07T08:46:46;96930;;;6;64
68628;BME280;55611;48.602;9.490;2022-12-07T08:49:03;96930;;;6.1;64
68628;BME280;55611;48.602;9.490;2022-12-07T08:51:31;96930;;;6.1;64
68628;BME280;55611;48.602;9.490;2022-12-07T08:54:04;96930;;;6.1;64.5
68628;BME280;55611;48.602;9.490;2022-12-07T08:56:32;96930;;;6.2;64.5
68628;BME280;55611;48.602;9.490;2022-12-07T08:59:03;96920;;;6.3;64.5
68628;BME280;55611;48.602;9.490;2022-12-07T09:01:33;96920;;;6.4;64.5
68628;BME280;55611;48.602;9.490;2022-12-07T09:04:04;96920;;;6.5;64.5
68628;BME280;55611;48.602;9.490;2022-12-07T09:06:34;96920;;;6.6;64.5
68628;BME280;55611;48.602;9.490;2022-12-07T09:09:05;96920;;;6.7;64.5
68628;BME280;55611;48.602;9.490;2022-12-07T09:11:35;96920;;;6.8;64.5
68628;BME280;55611;48.602;9.490;2022-12-07T09:14:06;96920;;;6.8;64.5
68628;BME280;55611;48.602;9.490;2022-12-07T09:16:36;96910;;;6.9;64.5
68628;BME280;55611;48.602;9.490;2022-12-07T09:19:07;96910;;;6.9;64.5
68628;BME280;55611;48.602;9.490;2022-12-07T09:21:37;96920;;;7.1;64.5
68628;BME280;55611;48.602;9.490;2022-12-07T09:24:08;96920;;;7.1;65
68628;BME280;55611;48.602;9.490;2022-12-07T09:26:38;96910;;;7;65
68628;BME280;55611;48.602;9.490;2022-12-07T09:29:09;96910;;;7;65
68628;BME280;55611;48.602;9.490;2022-12-07T09:31:40;96920;;;7;65
68628;BME280;55611;48.602;9.490;2022-12-07T09:34:10;96920;;;7;65
68628;BME280;55611;48.602;9.490;2022-12-07T09:36:40;96910;;;7;65
68628;BME280;55611;48.602;9.490;2022-12-07T09:39:11;96910;;;7;65
68628;BME280;55611;48.602;9.490;2022-12-07T09:41:42;96910;;;7.1;65
68628;BME280;55611;48.602;9.490;2022-12-07T09:44:13;96910;;;7.2;65
68628;BME280;55611;48.602;9.490;2022-12-07T09:46:42;96900;;;7.3;65
68628;BME280;55611;48.602;9.490;2022-12-07T09:49:15;96910;;;7.3;65
68628;BME280;55611;48.602;9.490;2022-12-07T09:51:44;96900;;;7.3;65
68628;BME280;55611;48.602;9.490;2022-12-07T09:54:15;96900;;;7.3;65
68628;BME280;55611;48.602;9.490;2022-12-07T09:56:44;96890;;;7.3;65
68628;BME280;55611;48.602;9.490;2022-12-07T09:59:17;96890;;;7.3;65
68628;BME280;55611;48.602;9.490;2022-12-07T10:01:47;96890;;;7.3;65
68628;BME280;55611;48.602;9.490;2022-12-07T10:04:17;96890;;;7.3;65
68628;BME280;55611;48.602;9.490;2022-12-07T10:06:47;96880;;;7.3;65
68628;BME280;55611;48.602;9.490;2022-12-07T10:09:18;96880;;;7.4;65
68628;BME280;55611;48.602;9.490;2022-12-07T10:12:04;96880;;;7.5;65
68628;BME280;55611;48.602;9.490;2022-12-07T10:14:18;96880;;;7.6;65
68628;BME280;55611;48.602;9.490;2022-12-07T10:16:49;96870;;;7.7;65
68628;BME280;55611;48.602;9.490;2022-12-07T10:19:22;96870;;;7.7;65
68628;BME280;55611;48.602;9.490;2022-12-07T10:22:09;96880;;;7.8;65
68628;BME280;55611;48.602;9.490;2022-12-07T10:24:21;96870;;;7.9;65
68628;BME280;55611;48.602;9.490;2022-12-07T10:26:51;96870;;;7.8;65
68628;BME280;55611;48.602;9.490;2022-12-07T10:29:37;96860;;;7.7;65
68628;BME280;55611;48.602;9.490;2022-12-07T10:31:54;96860;;;7.8;65
68628;BME280;55611;48.602;9.490;2022-12-07T10:34:24;96860;;;7.9;65
68628;BME280;55611;48.602;9.490;2022-12-07T10:36:53;96860;;;7.9;65
68628;BME280;55611;48.602;9.490;2022-12-07T10:39:23;96860;;;7.9;65
68628;BME280;55611;48.602;9.490;2022-12-07T10:41:55;96860;;;7.9;65
68628;BME280;55611;48.602;9.490;2022-12-07T10:44:26;96860;;;8;65
68628;BME280;55611;48.602;9.490;2022-12-07T10:47:14;96860;;;7.9;65
68628;BME280;55611;48.602;9.490;2022-12-07T10:49:31;96860;;;7.9;65
68628;BME280;55611;48.602;9.490;2022-12-07T10:52:00;96860;;;8;65
68628;BME280;55611;48.602;9.490;2022-12-07T10:54:31;96850;;;8;65
68628;BME280;55611;48.602;9.490;2022-12-07T10:59:34;96840;;;8;65
68628;BME280;55611;48.602;9.490;2022-12-07T11:02:06;96840;;;8;65
68628;BME280;55611;48.602;9.490;2022-12-07T11:04:39;96830;;;7.9;65
68628;BME280;55611;48.602;9.490;2022-12-07T11:07:14;96830;;;7.9;65
68628;BME280;55611;48.602;9.490;2022-12-07T11:09:41;96830;;;7.9;65
68628;BME280;55611;48.602;9.490;2022-12-07T11:15:39;96830;;;8.1;65
68628;BME280;55611;48.602;9.490;2022-12-07T11:17:02;96830;;;8.1;65
68628;BME280;55611;48.602;9.490;2022-12-07T11:19:34;96820;;;8;65
68628;BME280;55611;48.602;9.490;2022-12-07T11:22:04;96820;;;7.9;65
68628;BME280;55611;48.602;9.490;2022-12-07T11:24:37;96820;;;7.9;65
68628;BME280;55611;48.602;9.490;2022-12-07T11:27:06;96820;;;8;65
68628;BME280;55611;48.602;9.490;2022-12-07T11:29:39;96820;;;8;65
68628;BME280;55611;48.602;9.490;2022-12-07T11:32:40;96810;;;8;65
68628;BME280;55611;48.602;9.490;2022-12-07T11:34:46;96810;;;8;65
68628;BME280;55611;48.602;9.490;2022-12-07T11:37:08;96810;;;8;65
68628;BME280;55611;48.602;9.490;2022-12-07T11:39:37;96800;;;8.1;65
68628;BME280;55611;48.602;9.490;2022-12-07T11:42:09;96800;;;8.1;65
68628;BME280;55611;48.602;9.490;2022-12-07T11:44:39;96800;;;8.1;65
68628;BME280;55611;48.602;9.490;2022-12-07T11:47:08;96800;;;8.1;65
68628;BME280;55611;48.602;9.490;2022-12-07T11:49:43;96800;;;8;65
68628;BME280;55611;48.602;9.490;2022-12-07T11:52:12;96800;;;8;65
68628;BME280;55611;48.602;9.490;2022-12-07T11:54:40;96800;;;8.1;65
68628;BME280;55611;48.602;9.490;2022-12-07T11:57:12;96800;;;8;65
68628;BME280;55611;48.602;9.490;2022-12-07T11:59:41;96790;;;7.8;65
68628;BME280;55611;48.602;9.490;2022-12-07T12:02:13;96790;;;7.8;65
68628;BME280;55611;48.602;9.490;2022-12-07T12:05:14;96780;;;7.8;65
68628;BME280;55611;48.602;9.490;2022-12-07T12:07:13;96780;;;7.8;65
68628;BME280;55611;48.602;9.490;2022-12-07T12:09:46;96780;;;7.8;65
68628;BME280;55611;48.602;9.490;2022-12-07T12:12:17;96780;;;7.8;65
68628;BME280;55611;48.602;9.490;2022-12-07T12:14:46;96770;;;7.9;65
68628;BME280;55611;48.602;9.490;2022-12-07T12:17:17;96770;;;7.9;65
68628;BME280;55611;48.602;9.490;2022-12-07T12:19:55;96770;;;8;64.5
68628;BME280;55611;48.602;9.490;2022-12-07T12:22:15;96770;;;8;64.5
68628;BME280;55611;48.602;9.490;2022-12-07T12:24:46;96770;;;8;64.5
68628;BME280;55611;48.602;9.490;2022-12-07T12:27:31;96770;;;7.9;65
68628;BME280;55611;48.602;9.490;2022-12-07T12:29:50;96770;;;7.9;65
68628;BME280;55611;48.602;9.490;2022-12-07T12:32:17;96770;;;8;65
68628;BME280;55611;48.602;9.490;2022-12-07T12:35:02;96760;;;8.1;64.5
68628;BME280;55611;48.602;9.490;2022-12-07T12:37:40;96760;;;8.1;64.5
68628;BME280;55611;48.602;9.490;2022-12-07T12:40:40;96760;;;7.9;64.5
68628;BME280;55611;48.602;9.490;2022-12-07T12:42:19;96760;;;7.9;65
68628;BME280;55611;48.602;9.490;2022-12-07T12:45:02;96760;;;8;64.5
68628;BME280;55611;48.602;9.490;2022-12-07T12:47:38;96760;;;8;64.5
68628;BME280;55611;48.602;9.490;2022-12-07T12:52:45;96760;;;8;64.5
68628;BME280;55611;48.602;9.490;2022-12-07T12:55:14;96750;;;8;64.5
68628;BME280;55611;48.602;9.490;2022-12-07T12:57:30;96750;;;8;64.5
68628;BME280;55611;48.602;9.490;2022-12-07T13:02:25;96750;;;8;64.5
68628;BME280;55611;48.602;9.490;2022-12-07T13:05:25;96750;;;8;64.5
68628;BME280;55611;48.602;9.490;2022-12-07T13:09:54;96740;;;7.9;64.5
68628;BME280;55611;48.602;9.490;2022-12-07T13:12:25;96730;;;8;64.5
68628;BME280;55611;48.602;9.490;2022-12-07T13:14:56;96730;;;8;64.5
68628;BME280;55611;48.602;9.490;2022-12-07T13:22:39;96730;;;7.9;64.5
68628;BME280;55611;48.602;9.490;2022-12-07T13:24:58;96730;;;7.9;64.5
68628;BME280;55611;48.602;9.490;2022-12-07T13:27:28;96730;;;7.8;64.5
68628;BME280;55611;48.602;9.490;2022-12-07T13:29:58;96730;;;7.7;64.5
68628;BME280;55611;48.602;9.490;2022-12-07T13:32:29;96730;;;7.7;64.5
68628;BME280;55611;48.602;9.490;2022-12-07T13:34:59;96730;;;7.6;64.5
68628;BME280;55611;48.602;9.490;2022-12-07T13:37:30;96720;;;7.6;64.5
68628;BME280;55611;48.602;9.490;2022-12-07T13:40:01;96730;;;7.7;64.5
68628;BME280;55611;48.602;9.490;2022-12-07T13:42:34;96720;;;7.8;64.5
68628;BME280;55611;48.602;9.490;2022-12-07T13:45:20;96720;;;7.9;64.5
68628;BME280;55611;48.602;9.490;2022-12-07T13:47:35;96730;;;7.8;64.5
68628;BME280;55611;48.602;9.490;2022-12-07T13:50:20;96720;;;7.7;64.5
68628;BME280;55611;48.602;9.490;2022-12-07T13:52:33;96720;;;7.6;64.5
68628;BME280;55611;48.602;9.490;2022-12-07T13:55:11;96720;;;7.6;64.5
68628;BME280;55611;48.602;9.490;2022-12-07T13:57:35;96720;;;7.7;64.5
68628;BME280;55611;48.602;9.490;2022-12-07T14:00:06;96720;;;7.7;64.5
68628;BME280;55611;48.602;9.490;2022-12-07T14:02:35;96720;;;7.7;64
68628;BME280;55611;48.602;9.490;2022-12-07T14:05:09;96720;;;7.7;64
68628;BME280;55611;48.602;9.490;2022-12-07T14:07:44;96720;;;7.7;64
68628;BME280;55611;48.602;9.490;2022-12-07T14:10:22;96720;;;7.7;64
68628;BME280;55611;48.602;9.490;2022-12-07T14:12:37;96720;;;7.7;64
68628;BME280;55611;48.602;9.490;2022-12-07T14:15:15;96720;;;7.7;64
68628;BME280;55611;48.602;9.490;2022-12-07T14:17:49;96720;;;7.7;64
68628;BME280;55611;48.602;9.490;2022-12-07T14:20:40;96710;;;7.7;64
68628;BME280;55611;48.602;9.490;2022-12-07T14:22:39;96710;;;7.6;64
68628;BME280;55611;48.602;9.490;2022-12-07T14:25:17;96710;;;7.6;64
68628;BME280;55611;48.602;9.490;2022-12-07T14:27:47;96710;;;7.6;64
68628;BME280;55611;48.602;9.490;2022-12-07T14:30:14;96710;;;7.6;64
68628;BME280;55611;48.602;9.490;2022-12-07T14:32:41;96710;;;7.6;64
68628;BME280;55611;48.602;9.490;2022-12-07T14:35:12;96710;;;7.6;64
68628;BME280;55611;48.602;9.490;2022-12-07T14:37:44;96710;;;7.6;64
68628;BME280;55611;48.602;9.490;2022-12-07T14:40:14;96710;;;7.6;64
68628;BME280;55611;48.602;9.490;2022-12-07T14:42:43;96710;;;7.6;64
68628;BME280;55611;48.602;9.490;2022-12-07T14:45:16;96710;;;7.6;64
68628;BME280;55611;48.602;9.490;2022-12-07T14:47:45;96720;;;7.6;64
68628;BME280;55611;48.602;9.490;2022-12-07T14:50:16;96720;;;7.6;64
68628;BME280;55611;48.602;9.490;2022-12-07T14:52:47;96710;;;7.5;64
68628;BME280;55611;48.602;9.490;2022-12-07T14:55:19;96710;;;7.5;64
68628;BME280;55611;48.602;9.490;2022-12-07T14:57:46;96710;;;7.6;64
68628;BME280;55611;48.602;9.490;2022-12-07T15:00:17;96710;;;7.6;64
68628;BME280;55611;48.602;9.490;2022-12-07T15:02:48;96710;;;7.5;64
68628;BME280;55611;48.602;9.490;2022-12-07T15:05:18;96710;;;7.5;64
68628;BME280;55611;48.602;9.490;2022-12-07T15:07:49;96720;;;7.4;64
68628;BME280;55611;48.602;9.490;2022-12-07T15:10:20;96720;;;7.4;64
68628;BME280;55611;48.602;9.490;2022-12-07T15:12:50;96720;;;7.3;64
68628;BME280;55611;48.602;9.490;2022-12-07T15:15:20;96720;;;7.2;64
68628;BME280;55611;48.602;9.490;2022-12-07T15:17:50;96720;;;7.1;64
68628;BME280;55611;48.602;9.490;2022-12-07T15:20:21;96720;;;7.1;64